Time;durP1;ratioP1;P1;durP2;ratioP2;P2;SDS_P1;SDS_P2;PMS_P1;PMS_P2;Temp;Humidity;BMP_temperature;BMP_pressure;BME280_temperature;BME280_humidity;BME280_pressure;Samples;Min_cycle;Max_cycle;Signal;HPM_P1;HPM_P2
2022/02/25 00:02:20;;;;;;;;;;;3.00;99.90;;;;;;5106481;28;19923;-82
2022/02/25 00:04:46;;;;;;;;;;;3.10;99.90;;;;;;5102167;28;19916;-83
2022/02/25 00:07:11;;;;;;;;;;;3.00;73.00;;;;;;5101408;28;19918;-83
2022/02/25 00:09:37;;;;;;;;;;;3.00;1.00;;;;;;5113156;28;19934;-83
2022/02/25 00:12:02;;;;;;;;;;;3.00;1.00;;;;;;5101944;28;19912;-82
2022/02/25 00:14:28;;;;;;;;;;;3.10;1.00;;;;;;5115928;28;19919;-83
2022/02/25 00:16:53;;;;;;;;;;;3.10;1.00;;;;;;5111251;28;19919;-82
2022/02/25 00:19:19;;;;;;;;;;;3.10;1.00;;;;;;5107338;28;19922;-83
2022/02/25 00:21:45;;;;;;;;;;;3.10;1.00;;;;;;5101014;28;19920;-83
2022/02/25 00:24:11;;;;;;;;;;;3.10;1.00;;;;;;5100582;28;19981;-82
2022/02/25 00:26:36;;;;;;;;;;;3.10;99.90;;;;;;5102187;28;19965;-83
2022/02/25 00:29:05;;;;;;;;;;;3.10;99.90;;;;;;5102027;28;20300;-82
2022/02/25 00:31:31;;;;;;;;;;;3.10;99.90;;;;;;5105285;28;20299;-81
2022/02/25 00:33:56;;;;;;;;;;;3.00;99.90;;;;;;5102006;28;19912;-83
2022/02/25 00:36:22;;;;;;;;;;;3.00;99.90;;;;;;5116109;27;20014;-83
2022/02/25 00:38:47;;;;;;;;;;;3.00;99.90;;;;;;5099574;28;19923;-83
2022/02/25 00:41:12;;;;;;;;;;;3.00;99.90;;;;;;5099148;28;19915;-82
2022/02/25 00:43:38;;;;;;;;;;;3.00;99.90;;;;;;5100253;28;20363;-83
2022/02/25 00:46:03;;;;;;;;;;;3.00;99.90;;;;;;5100301;28;19923;-83
2022/02/25 00:48:29;;;;;;;;;;;2.90;99.90;;;;;;5099374;28;19955;-83
2022/02/25 00:50:54;;;;;;;;;;;3.00;1.00;;;;;;5100192;28;19919;-83
2022/02/25 00:53:20;;;;;;;;;;;3.00;1.00;;;;;;5100219;28;19970;-83
2022/02/25 00:55:45;;;;;;;;;;;2.90;99.90;;;;;;5100322;28;20279;-83
2022/02/25 00:58:11;;;;;;;;;;;2.90;1.00;;;;;;5102701;28;19912;-83
2022/02/25 01:00:36;;;;;;;;;;;2.90;1.00;;;;;;5102914;28;19907;-83
2022/02/25 01:03:02;;;;;;;;;;;2.90;1.00;;;;;;5109785;28;20477;-81
2022/02/25 01:05:27;;;;;;;;;;;3.00;1.00;;;;;;5100711;28;19937;-83
2022/02/25 01:07:53;;;;;;;;;;;3.00;1.00;;;;;;5099455;28;19927;-83
2022/02/25 01:10:19;;;;;;;;;;;3.00;1.00;;;;;;5103928;28;19911;-83
2022/02/25 01:12:45;;;;;;;;;;;3.00;99.90;;;;;;5104409;28;19922;-83
2022/02/25 01:15:11;;;;;;;;;;;3.00;99.90;;;;;;5111708;28;20279;-83
2022/02/25 01:17:37;;;;;;;;;;;3.00;1.00;;;;;;5106234;28;19943;-83
2022/02/25 01:20:03;;;;;;;;;;;3.00;99.90;;;;;;5101693;28;19955;-83
2022/02/25 01:22:28;;;;;;;;;;;3.00;99.90;;;;;;5100018;28;19920;-83
2022/02/25 01:24:54;;;;;;;;;;;3.00;24.00;;;;;;5100603;28;19961;-83
2022/02/25 01:27:19;;;;;;;;;;;3.00;1.00;;;;;;5102186;28;20367;-83
2022/02/25 01:29:45;;;;;;;;;;;3.00;1.00;;;;;;5105619;28;19919;-83
2022/02/25 01:32:11;;;;;;;;;;;3.00;99.90;;;;;;5101650;28;20426;-83
2022/02/25 01:34:37;;;;;;;;;;;3.00;99.90;;;;;;5102120;28;19919;-83
2022/02/25 01:37:03;;;;;;;;;;;3.10;1.00;;;;;;5103265;28;19916;-83
2022/02/25 01:39:28;;;;;;;;;;;3.00;1.00;;;;;;5100647;28;19988;-83
2022/02/25 01:41:55;;;;;;;;;;;3.10;99.90;;;;;;5100631;28;20388;-83
2022/02/25 01:44:22;;;;;;;;;;;3.00;99.90;;;;;;5101342;28;19920;-83
2022/02/25 01:46:47;;;;;;;;;;;3.00;99.90;;;;;;5107511;28;20329;-83
2022/02/25 01:49:13;;;;;;;;;;;3.00;1.00;;;;;;5105346;28;19919;-82
2022/02/25 01:51:39;;;;;;;;;;;3.00;1.00;;;;;;5104810;28;19916;-82
2022/02/25 01:54:05;;;;;;;;;;;3.10;1.00;;;;;;5105526;28;19912;-82
2022/02/25 01:56:30;;;;;;;;;;;3.10;99.90;;;;;;5121466;27;19912;-83
2022/02/25 01:58:56;;;;;;;;;;;3.10;78.70;;;;;;5105324;28;19916;-83
2022/02/25 02:01:22;;;;;;;;;;;3.10;1.00;;;;;;5105537;28;19919;-83
2022/02/25 02:03:47;;;;;;;;;;;3.10;1.00;;;;;;5106599;28;20284;-83
2022/02/25 02:06:13;;;;;;;;;;;3.10;1.00;;;;;;5106798;28;19919;-83
2022/02/25 02:08:38;;;;;;;;;;;3.10;1.00;;;;;;5108620;28;19977;-83
2022/02/25 02:11:04;;;;;;;;;;;3.10;99.90;;;;;;5109753;28;19912;-82
2022/02/25 02:13:29;;;;;;;;;;;3.10;99.90;;;;;;5104176;28;19920;-83
2022/02/25 02:15:55;;;;;;;;;;;3.10;99.90;;;;;;5102592;28;19912;-83
2022/02/25 02:18:20;;;;;;;;;;;3.10;99.90;;;;;;5112267;28;19912;-83
2022/02/25 02:20:46;;;;;;;;;;;3.10;99.90;;;;;;5105624;28;19912;-83
2022/02/25 02:23:11;;;;;;;;;;;3.00;99.90;;;;;;5105996;28;19959;-82
2022/02/25 02:25:37;;;;;;;;;;;3.00;99.90;;;;;;5104498;28;19983;-83
2022/02/25 02:28:17;;;;;;;;;;;3.00;99.90;;;;;;5103636;28;19934;-83
2022/02/25 02:30:44;;;;;;;;;;;3.00;99.90;;;;;;5108283;28;19923;-83
2022/02/25 02:33:10;;;;;;;;;;;3.00;1.00;;;;;;5106547;28;19912;-82
2022/02/25 02:35:35;;;;;;;;;;;2.90;1.00;;;;;;5105864;28;19919;-83
2022/02/25 02:38:01;;;;;;;;;;;2.90;1.00;;;;;;5106469;28;19988;-83
2022/02/25 02:40:26;;;;;;;;;;;2.90;1.00;;;;;;5104667;28;19991;-82
2022/02/25 02:42:52;;;;;;;;;;;2.90;1.00;;;;;;5100983;28;20256;-83
2022/02/25 02:45:17;;;;;;;;;;;2.90;1.00;;;;;;5109096;28;19915;-83
2022/02/25 02:47:43;;;;;;;;;;;2.90;1.00;;;;;;5104892;28;20476;-83
2022/02/25 02:50:09;;;;;;;;;;;2.90;1.00;;;;;;5105974;28;19957;-82
2022/02/25 02:52:35;;;;;;;;;;;2.90;1.00;;;;;;5112519;28;20003;-82
2022/02/25 02:55:00;;;;;;;;;;;2.90;1.00;;;;;;5111954;28;20407;-83
2022/02/25 02:57:26;;;;;;;;;;;2.90;1.00;;;;;;5105036;28;19911;-82
2022/02/25 02:59:51;;;;;;;;;;;2.80;1.00;;;;;;5105287;28;19965;-82
2022/02/25 03:02:17;;;;;;;;;;;2.90;1.00;;;;;;5106708;28;19912;-83
2022/02/25 03:04:42;;;;;;;;;;;2.90;99.90;;;;;;5106547;28;19924;-83
2022/02/25 03:07:10;;;;;;;;;;;2.90;1.00;;;;;;5105341;28;19912;-82
2022/02/25 03:09:35;;;;;;;;;;;2.80;1.00;;;;;;5105608;28;19912;-83
2022/02/25 03:12:02;;;;;;;;;;;2.80;99.90;;;;;;5104706;28;20398;-83
2022/02/25 03:14:28;;;;;;;;;;;2.90;99.90;;;;;;5111189;28;19986;-83
2022/02/25 03:16:54;;;;;;;;;;;2.90;99.90;;;;;;5107184;28;19957;-83
2022/02/25 03:19:19;;;;;;;;;;;2.90;99.90;;;;;;5106036;28;20376;-83
2022/02/25 03:21:45;;;;;;;;;;;2.90;99.90;;;;;;5105413;28;20350;-83
2022/02/25 03:24:10;;;;;;;;;;;2.90;99.90;;;;;;5105421;28;20295;-82
2022/02/25 03:26:36;;;;;;;;;;;3.00;99.90;;;;;;5107059;28;19947;-83
2022/02/25 03:29:03;;;;;;;;;;;3.00;99.90;;;;;;5104380;28;19908;-83
2022/02/25 03:31:28;;;;;;;;;;;2.90;99.90;;;;;;5111042;28;20011;-82
2022/02/25 03:33:54;;;;;;;;;;;2.90;99.90;;;;;;5109254;28;19912;-83
2022/02/25 03:36:19;;;;;;;;;;;2.90;99.90;;;;;;5104936;27;20415;-83
2022/02/25 03:38:45;;;;;;;;;;;2.90;99.90;;;;;;5106537;28;20002;-83
2022/02/25 03:41:10;;;;;;;;;;;2.80;99.90;;;;;;5105630;28;19912;-83
2022/02/25 03:43:36;;;;;;;;;;;2.80;99.90;;;;;;5102615;28;19916;-82
2022/02/25 03:46:02;;;;;;;;;;;2.80;99.90;;;;;;5106791;28;19975;-82
2022/02/25 03:48:28;;;;;;;;;;;2.80;99.90;;;;;;5104507;28;19918;-83
2022/02/25 03:50:53;;;;;;;;;;;2.70;99.90;;;;;;5107155;28;19970;-82
2022/02/25 03:53:19;;;;;;;;;;;2.80;99.90;;;;;;5105084;28;20330;-82
2022/02/25 03:55:44;;;;;;;;;;;2.80;99.90;;;;;;5103804;28;21151;-82
2022/02/25 03:58:10;;;;;;;;;;;2.80;99.90;;;;;;5108760;28;19944;-83
2022/02/25 04:00:36;;;;;;;;;;;2.70;99.90;;;;;;5103996;28;20002;-83
2022/02/25 04:03:01;;;;;;;;;;;2.70;99.90;;;;;;5103692;28;19961;-83
2022/02/25 04:05:27;;;;;;;;;;;2.80;99.90;;;;;;5104821;28;19915;-83
2022/02/25 04:07:53;;;;;;;;;;;2.80;99.90;;;;;;5108167;28;20350;-83
2022/02/25 04:10:19;;;;;;;;;;;2.80;99.90;;;;;;5105864;28;20269;-83
2022/02/25 04:12:44;;;;;;;;;;;2.80;99.90;;;;;;5105343;28;19912;-83
2022/02/25 04:15:10;;;;;;;;;;;2.80;99.90;;;;;;5105331;28;20426;-82
2022/02/25 04:17:36;;;;;;;;;;;2.80;99.90;;;;;;5112758;28;20457;-83
2022/02/25 04:20:02;;;;;;;;;;;2.90;99.90;;;;;;5106360;28;19912;-83
2022/02/25 04:22:27;;;;;;;;;;;2.90;99.90;;;;;;5105081;28;19912;-83
2022/02/25 04:24:53;;;;;;;;;;;2.90;99.90;;;;;;5103445;28;19970;-82
2022/02/25 04:27:18;;;;;;;;;;;3.00;99.90;;;;;;5105737;28;19994;-83
2022/02/25 04:29:44;;;;;;;;;;;3.00;99.90;;;;;;5102808;28;19912;-83
2022/02/25 04:32:09;;;;;;;;;;;3.00;99.90;;;;;;5105360;28;19995;-82
2022/02/25 04:34:35;;;;;;;;;;;3.00;96.40;;;;;;5104265;28;20294;-83
2022/02/25 04:37:00;;;;;;;;;;;3.00;84.90;;;;;;5104325;28;20002;-83
2022/02/25 04:39:26;;;;;;;;;;;3.00;58.80;;;;;;5108104;28;19981;-83
2022/02/25 04:41:51;;;;;;;;;;;3.00;15.60;;;;;;5105330;28;20046;-83
2022/02/25 04:44:17;;;;;;;;;;;3.00;10.40;;;;;;5104778;28;19963;-82
2022/02/25 04:46:42;;;;;;;;;;;3.00;29.10;;;;;;5103292;28;19916;-82
2022/02/25 04:49:08;;;;;;;;;;;3.00;91.10;;;;;;5102714;28;19962;-83
2022/02/25 04:51:33;;;;;;;;;;;3.00;78.00;;;;;;5105232;28;19948;-83
2022/02/25 04:53:59;;;;;;;;;;;3.00;45.60;;;;;;5103346;28;19912;-83
2022/02/25 04:56:24;;;;;;;;;;;3.10;1.60;;;;;;5105732;28;19937;-82
2022/02/25 04:58:50;;;;;;;;;;;3.10;12.70;;;;;;5106002;28;19947;-82
2022/02/25 05:01:15;;;;;;;;;;;3.10;1.00;;;;;;5105261;28;19951;-84
2022/02/25 05:03:41;;;;;;;;;;;3.10;1.00;;;;;;5105527;28;19981;-83
2022/02/25 05:06:06;;;;;;;;;;;3.10;1.00;;;;;;5106728;28;19999;-83
2022/02/25 05:08:32;;;;;;;;;;;3.10;1.00;;;;;;5109210;28;20284;-82
2022/02/25 05:10:58;;;;;;;;;;;3.10;1.00;;;;;;5105882;28;19919;-83
2022/02/25 05:13:24;;;;;;;;;;;3.10;1.00;;;;;;5109026;28;19912;-83
2022/02/25 05:21:18;;;;;;;;;;;3.00;31.00;;;;;;5108236;28;19954;-83
2022/02/25 05:23:43;;;;;;;;;;;3.00;61.80;;;;;;5106734;28;19931;-83
2022/02/25 05:26:09;;;;;;;;;;;3.00;54.50;;;;;;5104905;28;19912;-83
2022/02/25 05:28:34;;;;;;;;;;;3.00;97.90;;;;;;5105011;28;19995;-82
2022/02/25 05:31:00;;;;;;;;;;;2.90;99.90;;;;;;5104996;28;19916;-83
2022/02/25 05:33:25;;;;;;;;;;;2.90;99.90;;;;;;5108836;28;19947;-82
2022/02/25 05:35:51;;;;;;;;;;;2.90;99.90;;;;;;5104445;28;19919;-82
2022/02/25 05:38:16;;;;;;;;;;;2.90;99.90;;;;;;5107083;28;19908;-83
2022/02/25 05:40:42;;;;;;;;;;;2.90;99.90;;;;;;5104951;28;19968;-82
2022/02/25 05:43:07;;;;;;;;;;;2.80;99.90;;;;;;5106991;28;19904;-82
2022/02/25 05:45:33;;;;;;;;;;;2.80;99.90;;;;;;5106244;28;19916;-83
2022/02/25 05:47:58;;;;;;;;;;;2.80;99.90;;;;;;5105163;28;20271;-83
2022/02/25 05:50:24;;;;;;;;;;;2.80;99.90;;;;;;5107681;28;19908;-83
2022/02/25 05:52:50;;;;;;;;;;;2.80;99.90;;;;;;5105789;28;19912;-83
2022/02/25 05:55:16;;;;;;;;;;;2.80;99.90;;;;;;5107150;28;19907;-83
2022/02/25 05:57:42;;;;;;;;;;;2.80;99.90;;;;;;5104772;28;19916;-83
2022/02/25 06:00:08;;;;;;;;;;;2.80;99.90;;;;;;5105080;28;20302;-83
2022/02/25 06:02:34;;;;;;;;;;;2.90;99.90;;;;;;5105672;28;19914;-83
2022/02/25 06:05:00;;;;;;;;;;;2.90;99.90;;;;;;5103336;28;20014;-83
2022/02/25 06:07:25;;;;;;;;;;;2.90;99.90;;;;;;5108979;28;19954;-83
2022/02/25 06:09:50;;;;;;;;;;;2.90;99.90;;;;;;5103958;28;19908;-83
2022/02/25 06:12:16;;;;;;;;;;;2.90;99.90;;;;;;5106658;28;19943;-82
2022/02/25 06:14:41;;;;;;;;;;;2.90;99.90;;;;;;5108366;28;19907;-82
2022/02/25 06:17:07;;;;;;;;;;;2.90;99.90;;;;;;5104455;28;20321;-83
2022/02/25 06:19:32;;;;;;;;;;;3.00;99.90;;;;;;5106356;28;20282;-83
2022/02/25 06:21:58;;;;;;;;;;;3.00;99.90;;;;;;5104634;28;19956;-83
2022/02/25 06:24:23;;;;;;;;;;;3.10;99.90;;;;;;5105414;28;19916;-82
2022/02/25 06:26:49;;;;;;;;;;;3.10;99.90;;;;;;5104654;28;19967;-83
2022/02/25 06:29:14;;;;;;;;;;;3.10;99.90;;;;;;5107351;28;19918;-83
2022/02/25 06:31:40;;;;;;;;;;;3.20;99.90;;;;;;5107413;28;19920;-83
2022/02/25 06:34:06;;;;;;;;;;;3.20;99.60;;;;;;5109174;28;19947;-83
2022/02/25 06:36:32;;;;;;;;;;;3.30;51.50;;;;;;5108095;28;19912;-84
2022/02/25 06:38:57;;;;;;;;;;;3.40;43.90;;;;;;5107504;28;19981;-84
2022/02/25 06:41:25;;;;;;;;;;;3.60;1.00;;;;;;5109464;28;19919;-84
2022/02/25 06:43:51;;;;;;;;;;;3.90;1.00;;;;;;5108984;28;19916;-84
2022/02/25 06:46:17;;;;;;;;;;;4.00;99.90;;;;;;5112153;28;19912;-84
2022/02/25 06:48:42;;;;;;;;;;;4.10;99.90;;;;;;5110610;28;19920;-84
2022/02/25 06:51:08;;;;;;;;;;;4.10;53.70;;;;;;5109744;28;19912;-84
2022/02/25 06:53:33;;;;;;;;;;;4.10;1.00;;;;;;5113201;28;19911;-84
2022/02/25 06:55:59;;;;;;;;;;;4.10;1.00;;;;;;5107623;28;19923;-84
2022/02/25 06:58:25;;;;;;;;;;;4.10;1.00;;;;;;5113860;28;19912;-83
2022/02/25 07:00:50;;;;;;;;;;;4.10;1.00;;;;;;5106473;28;19971;-84
2022/02/25 07:03:16;;;;;;;;;;;4.10;1.00;;;;;;5111442;28;19908;-84
2022/02/25 07:05:41;;;;;;;;;;;4.10;1.00;;;;;;5111211;28;19911;-83
2022/02/25 07:08:07;;;;;;;;;;;4.10;1.00;;;;;;5113554;28;19915;-84
2022/02/25 07:10:34;;;;;;;;;;;4.10;1.00;;;;;;5108835;28;19908;-84
2022/02/25 07:13:00;;;;;;;;;;;4.10;1.00;;;;;;5112489;28;19994;-84
2022/02/25 07:15:25;;;;;;;;;;;4.10;1.00;;;;;;5110367;28;20370;-83
2022/02/25 07:17:51;;;;;;;;;;;4.10;1.00;;;;;;5110174;28;19946;-84
2022/02/25 07:20:16;;;;;;;;;;;4.20;1.00;;;;;;5111653;28;19911;-82
2022/02/25 07:22:42;;;;;;;;;;;4.50;1.00;;;;;;5111628;28;19918;-83
2022/02/25 07:25:08;;;;;;;;;;;4.90;1.00;;;;;;5111805;28;19915;-83
2022/02/25 07:27:33;;;;;;;;;;;5.60;99.90;;;;;;5111407;28;19912;-83
2022/02/25 07:29:59;;;;;;;;;;;6.40;1.00;;;;;;5109449;28;20345;-84
2022/02/25 07:32:26;;;;;;;;;;;6.80;1.00;;;;;;5108127;28;19912;-84
2022/02/25 07:34:53;;;;;;;;;;;7.60;1.00;;;;;;5114565;28;19919;-84
2022/02/25 07:37:18;;;;;;;;;;;8.10;1.00;;;;;;5128540;27;19912;-84
2022/02/25 07:39:44;;;;;;;;;;;8.20;1.00;;;;;;5113207;28;20391;-84
2022/02/25 07:42:09;;;;;;;;;;;8.10;1.00;;;;;;5114233;28;19911;-80
2022/02/25 07:44:35;;;;;;;;;;;8.20;1.00;;;;;;5108923;28;20318;-84
2022/02/25 07:47:00;;;;;;;;;;;7.70;1.00;;;;;;5112412;28;19912;-84
2022/02/25 07:49:26;;;;;;;;;;;7.10;1.00;;;;;;5111394;28;19916;-84
2022/02/25 07:51:52;;;;;;;;;;;6.60;1.00;;;;;;5103830;28;19968;-84
2022/02/25 07:54:18;;;;;;;;;;;6.10;1.00;;;;;;5111211;28;19997;-84
2022/02/25 07:56:44;;;;;;;;;;;5.90;1.00;;;;;;5108463;28;19912;-83
2022/02/25 07:59:09;;;;;;;;;;;5.70;1.00;;;;;;5107375;28;20288;-84
2022/02/25 08:01:35;;;;;;;;;;;5.70;1.00;;;;;;5114085;28;19912;-84
2022/02/25 08:04:00;;;;;;;;;;;5.90;1.00;;;;;;5114019;28;20437;-84
2022/02/25 08:06:26;;;;;;;;;;;6.10;1.00;;;;;;5119054;28;19915;-84
2022/02/25 08:08:51;;;;;;;;;;;6.10;1.00;;;;;;5119057;28;19955;-83
2022/02/25 08:11:17;;;;;;;;;;;6.00;1.00;;;;;;5119254;28;19907;-84
2022/02/25 08:13:42;;;;;;;;;;;6.00;1.00;;;;;;5108016;28;19977;-83
2022/02/25 08:16:09;;;;;;;;;;;5.90;1.00;;;;;;5104249;28;19920;-84
2022/02/25 08:18:34;;;;;;;;;;;5.80;1.00;;;;;;5107289;28;19955;-84
2022/02/25 08:21:00;;;;;;;;;;;5.70;1.00;;;;;;5106652;28;19913;-83
2022/02/25 08:23:25;;;;;;;;;;;5.50;1.00;;;;;;5106116;27;20284;-84
2022/02/25 08:25:51;;;;;;;;;;;5.50;1.00;;;;;;5102476;28;19919;-84
2022/02/25 08:28:18;;;;;;;;;;;5.40;1.00;;;;;;5106243;28;20313;-84
2022/02/25 08:30:44;;;;;;;;;;;5.40;1.00;;;;;;5105255;28;19971;-83
2022/02/25 08:33:11;;;;;;;;;;;5.40;1.00;;;;;;5103795;28;20364;-83
2022/02/25 08:35:37;;;;;;;;;;;5.40;1.00;;;;;;5105020;28;19920;-84
2022/02/25 08:38:03;;;;;;;;;;;5.40;1.00;;;;;;5104722;28;20410;-84
2022/02/25 08:40:29;;;;;;;;;;;5.40;1.00;;;;;;5104777;28;19950;-84
2022/02/25 08:43:15;;;;;;;;;;;5.40;1.00;;;;;;5114128;28;19916;-83
2022/02/25 08:45:41;;;;;;;;;;;5.30;1.00;;;;;;5104059;28;19916;-84
2022/02/25 08:48:07;;;;;;;;;;;5.40;1.00;;;;;;5102405;28;19957;-83
2022/02/25 08:50:32;;;;;;;;;;;5.50;1.00;;;;;;5108529;28;20354;-83
2022/02/25 08:52:58;;;;;;;;;;;5.80;1.00;;;;;;5110857;28;19912;-84
2022/02/25 08:55:24;;;;;;;;;;;6.70;1.00;;;;;;5106436;28;20379;-84
2022/02/25 08:57:50;;;;;;;;;;;7.20;1.00;;;;;;5106229;28;19998;-83
2022/02/25 09:00:17;;;;;;;;;;;8.10;1.00;;;;;;5118622;28;19998;-84
2022/02/25 09:02:43;;;;;;;;;;;8.80;1.00;;;;;;5113471;28;19978;-83
2022/02/25 09:05:09;;;;;;;;;;;8.60;1.00;;;;;;5102861;28;19916;-83
2022/02/25 09:07:35;;;;;;;;;;;8.20;1.00;;;;;;5104395;28;20074;-83
2022/02/25 09:10:01;;;;;;;;;;;7.90;1.00;;;;;;5102429;28;19939;-84
2022/02/25 09:12:27;;;;;;;;;;;7.50;1.00;;;;;;5106543;28;20291;-84
2022/02/25 09:14:53;;;;;;;;;;;7.20;1.00;;;;;;5110949;28;19920;-84
2022/02/25 09:17:19;;;;;;;;;;;7.00;1.00;;;;;;5102351;28;19915;-84
2022/02/25 09:19:45;;;;;;;;;;;6.90;1.00;;;;;;5104789;28;20545;-85
2022/02/25 09:22:11;;;;;;;;;;;6.70;1.00;;;;;;5109163;28;20332;-82
2022/02/25 09:24:36;;;;;;;;;;;6.80;1.00;;;;;;5115300;28;19937;-83
2022/02/25 09:27:03;;;;;;;;;;;6.80;1.00;;;;;;5111673;28;19911;-84
2022/02/25 09:29:28;;;;;;;;;;;6.90;1.00;;;;;;5113185;28;19974;-85
2022/02/25 09:31:54;;;;;;;;;;;6.90;1.00;;;;;;5109093;28;20341;-84
2022/02/25 09:34:19;;;;;;;;;;;6.90;1.00;;;;;;5105407;28;19919;-84
2022/02/25 09:36:45;;;;;;;;;;;6.80;1.00;;;;;;5105022;28;19907;-84
2022/02/25 09:39:11;;;;;;;;;;;6.80;1.00;;;;;;5107596;28;19908;-85
2022/02/25 09:41:37;;;;;;;;;;;6.60;1.00;;;;;;5113569;28;19982;-83
2022/02/25 09:44:02;;;;;;;;;;;6.70;1.00;;;;;;5109968;28;19946;-84
2022/02/25 09:46:28;;;;;;;;;;;6.70;1.00;;;;;;5107905;28;19912;-84
2022/02/25 09:48:53;;;;;;;;;;;6.70;1.00;;;;;;5109404;28;21690;-84
2022/02/25 09:51:19;;;;;;;;;;;6.90;1.00;;;;;;5104696;28;19915;-84
2022/02/25 09:53:45;;;;;;;;;;;7.30;1.00;;;;;;5109585;28;20006;-85
2022/02/25 09:56:10;;;;;;;;;;;7.80;1.00;;;;;;5110456;28;19955;-82
2022/02/25 09:58:36;;;;;;;;;;;8.00;1.00;;;;;;5111694;28;19908;-83
2022/02/25 10:01:02;;;;;;;;;;;8.10;1.00;;;;;;5108332;28;19908;-84
2022/02/25 10:03:29;;;;;;;;;;;7.80;1.00;;;;;;5105051;28;19911;-83
2022/02/25 10:06:02;;;;;;;;;;;7.80;1.00;;;;;;5116367;28;19911;-84
2022/02/25 10:08:27;;;;;;;;;;;7.80;1.00;;;;;;5103819;28;19939;-84
2022/02/25 10:10:54;;;;;;;;;;;8.10;1.00;;;;;;5107308;28;19908;-83
2022/02/25 10:13:22;;;;;;;;;;;8.80;1.00;;;;;;5113982;28;19946;-84
2022/02/25 10:15:50;;;;;;;;;;;9.10;1.00;;;;;;5109501;28;19951;-85
2022/02/25 10:18:17;;;;;;;;;;;9.00;1.00;;;;;;5116079;28;20007;-85
2022/02/25 10:20:44;;;;;;;;;;;8.80;1.00;;;;;;5114859;27;19907;-84
2022/02/25 10:23:26;;;;;;;;;;;8.80;1.00;;;;;;5113798;28;19954;-83
2022/02/25 10:25:52;;;;;;;;;;;8.60;1.00;;;;;;5115171;27;19916;-84
2022/02/25 10:28:30;;;;;;;;;;;8.30;1.00;;;;;;5113484;28;19927;-84
2022/02/25 10:31:22;;;;;;;;;;;8.00;1.00;;;;;;5110478;28;19924;-84
2022/02/25 10:34:06;;;;;;;;;;;8.00;1.00;;;;;;5114323;28;19916;-84
2022/02/25 10:36:41;;;;;;;;;;;8.20;1.00;;;;;;5110443;28;19951;-83
2022/02/25 10:39:07;;;;;;;;;;;8.50;1.00;;;;;;5115157;28;20368;-84
2022/02/25 10:41:33;;;;;;;;;;;9.00;1.00;;;;;;5116177;28;19919;-84
2022/02/25 10:43:58;;;;;;;;;;;9.20;1.00;;;;;;5114896;28;19937;-83
2022/02/25 10:46:24;;;;;;;;;;;9.30;1.00;;;;;;5118189;28;19934;-82
2022/02/25 10:48:49;;;;;;;;;;;9.30;1.00;;;;;;5117138;28;19999;-83
2022/02/25 10:51:21;;;;;;;;;;;9.60;1.00;;;;;;5115000;28;19933;-84
2022/02/25 10:53:50;;;;;;;;;;;10.40;1.00;;;;;;5115984;27;20337;-82
2022/02/25 10:56:17;;;;;;;;;;;10.50;99.90;;;;;;5117978;28;20350;-82
2022/02/25 10:58:47;;;;;;;;;;;10.20;99.90;;;;;;5109531;28;19912;-83
2022/02/25 11:01:13;;;;;;;;;;;10.00;99.90;;;;;;5111849;28;19919;-83
2022/02/25 11:03:39;;;;;;;;;;;10.40;99.90;;;;;;5120516;28;19908;-82
2022/02/25 11:06:08;;;;;;;;;;;11.20;99.90;;;;;;5113618;28;19916;-82
2022/02/25 11:08:34;;;;;;;;;;;12.90;99.90;;;;;;5118125;28;19912;-83
2022/02/25 11:11:00;;;;;;;;;;;13.50;99.90;;;;;;5115927;28;19985;-82
2022/02/25 11:13:26;;;;;;;;;;;13.20;99.90;;;;;;5116787;28;19943;-82
2022/02/25 11:15:53;;;;;;;;;;;12.80;99.90;;;;;;5111482;28;19923;-81
2022/02/25 11:18:19;;;;;;;;;;;13.00;99.90;;;;;;5111831;28;20422;-83
2022/02/25 11:20:45;;;;;;;;;;;14.80;99.90;;;;;;5117687;28;19911;-84
2022/02/25 11:23:11;;;;;;;;;;;13.70;99.90;;;;;;5111351;28;20011;-83
2022/02/25 11:25:38;;;;;;;;;;;12.70;99.90;;;;;;5106197;28;20376;-83
2022/02/25 11:28:05;;;;;;;;;;;12.10;99.90;;;;;;5113520;28;19919;-83
2022/02/25 11:30:47;;;;;;;;;;;12.20;99.90;;;;;;5109214;27;19920;-82
2022/02/25 11:33:23;;;;;;;;;;;12.20;99.90;;;;;;5114464;28;19919;-82
2022/02/25 11:36:02;;;;;;;;;;;12.30;99.90;;;;;;5108724;28;19916;-83
2022/02/25 11:38:33;;;;;;;;;;;13.80;99.90;;;;;;5110213;28;20368;-83
2022/02/25 11:41:05;;;;;;;;;;;14.90;99.90;;;;;;5114818;28;19920;-83
2022/02/25 11:43:31;;;;;;;;;;;15.40;99.90;;;;;;5107212;28;19937;-84
2022/02/25 11:45:56;;;;;;;;;;;15.00;99.90;;;;;;5108834;28;20003;-83
2022/02/25 11:48:23;;;;;;;;;;;15.50;99.90;;;;;;5110991;28;19916;-83
2022/02/25 11:50:55;;;;;;;;;;;15.30;99.90;;;;;;5114571;28;19911;-83
2022/02/25 11:53:25;;;;;;;;;;;14.70;99.90;;;;;;5111984;28;19994;-83
2022/02/25 11:55:51;;;;;;;;;;;14.10;99.90;;;;;;5105547;28;20375;-83
2022/02/25 11:58:36;;;;;;;;;;;13.30;99.90;;;;;;5106614;28;19995;-83
2022/02/25 12:01:31;;;;;;;;;;;12.90;99.90;;;;;;5105878;28;19920;-83
2022/02/25 12:04:03;;;;;;;;;;;12.60;99.90;;;;;;5120228;27;19999;-82
2022/02/25 12:06:29;;;;;;;;;;;12.20;99.90;;;;;;5108809;28;19922;-82
2022/02/25 12:08:58;;;;;;;;;;;11.80;99.90;;;;;;5103817;28;19995;-83
2022/02/25 12:11:27;;;;;;;;;;;11.30;99.90;;;;;;5120799;27;19919;-83
2022/02/25 12:13:52;;;;;;;;;;;10.70;99.90;;;;;;5099921;28;19990;-82
2022/02/25 12:16:38;;;;;;;;;;;10.30;99.90;;;;;;5106827;28;20368;-82
2022/02/25 12:19:04;;;;;;;;;;;10.10;99.90;;;;;;5100730;28;19916;-84
2022/02/25 12:21:43;;;;;;;;;;;9.80;99.90;;;;;;5111377;28;19954;-82
2022/02/25 12:24:09;;;;;;;;;;;9.50;99.90;;;;;;5106904;28;19955;-83
2022/02/25 12:26:38;;;;;;;;;;;9.20;99.90;;;;;;5105348;28;19920;-83
2022/02/25 12:29:15;;;;;;;;;;;9.20;99.90;;;;;;5110789;28;20045;-82
2022/02/25 12:31:44;;;;;;;;;;;9.90;99.90;;;;;;5102493;28;19933;-83
2022/02/25 12:34:17;;;;;;;;;;;10.80;99.90;;;;;;5102710;28;19940;-82
2022/02/25 12:36:43;;;;;;;;;;;10.90;99.90;;;;;;5105080;28;19916;-82
2022/02/25 12:39:19;;;;;;;;;;;10.60;99.90;;;;;;5108562;28;19911;-81
2022/02/25 12:41:46;;;;;;;;;;;10.30;99.90;;;;;;5098899;28;19912;-81
2022/02/25 12:44:19;;;;;;;;;;;9.90;99.90;;;;;;5112497;28;19934;-81
2022/02/25 12:46:46;;;;;;;;;;;9.70;99.90;;;;;;5105673;27;19912;-81
2022/02/25 12:49:13;;;;;;;;;;;9.40;99.90;;;;;;5108731;28;19919;-83
2022/02/25 12:51:38;;;;;;;;;;;10.10;99.90;;;;;;5108780;28;19912;-83
2022/02/25 12:54:05;;;;;;;;;;;11.80;99.90;;;;;;5110695;28;20015;-83
2022/02/25 12:56:32;;;;;;;;;;;13.60;99.90;;;;;;5111333;28;19926;-84
2022/02/25 12:59:00;;;;;;;;;;;15.00;99.90;;;;;;5114779;28;19918;-82
2022/02/25 13:01:26;;;;;;;;;;;15.30;99.90;;;;;;5111113;28;19957;-83
2022/02/25 13:03:58;;;;;;;;;;;14.20;99.90;;;;;;5110274;28;19919;-82
2022/02/25 13:06:27;;;;;;;;;;;13.40;99.90;;;;;;5112954;28;19915;-83
2022/02/25 13:08:55;;;;;;;;;;;12.70;99.90;;;;;;5113152;28;19943;-83
2022/02/25 13:11:21;;;;;;;;;;;12.20;99.90;;;;;;5106688;28;19998;-83
2022/02/25 13:13:46;;;;;;;;;;;12.10;99.90;;;;;;5101273;28;19955;-83
2022/02/25 13:16:12;;;;;;;;;;;13.20;99.90;;;;;;5100291;28;19930;-84
2022/02/25 13:18:37;;;;;;;;;;;14.20;99.90;;;;;;5108109;28;19904;-83
2022/02/25 13:21:07;;;;;;;;;;;15.10;99.90;;;;;;5111172;28;19912;-83
2022/02/25 13:23:33;;;;;;;;;;;15.30;99.90;;;;;;5108980;28;19907;-83
2022/02/25 13:25:59;;;;;;;;;;;15.90;99.90;;;;;;5112904;28;19908;-83
2022/02/25 13:28:25;;;;;;;;;;;16.20;99.90;;;;;;5102164;28;19976;-84
2022/02/25 13:30:52;;;;;;;;;;;15.90;99.90;;;;;;5111243;28;19932;-82
2022/02/25 13:33:19;;;;;;;;;;;15.80;99.90;;;;;;5118293;28;19973;-83
2022/02/25 13:35:54;;;;;;;;;;;15.20;99.90;;;;;;5097504;28;20304;-83
2022/02/25 13:38:22;;;;;;;;;;;13.90;99.90;;;;;;5098648;28;19959;-83
2022/02/25 13:40:53;;;;;;;;;;;13.10;99.90;;;;;;5117952;28;19964;-83
2022/02/25 13:43:25;;;;;;;;;;;12.40;99.90;;;;;;5118091;28;19980;-83
2022/02/25 13:45:52;;;;;;;;;;;12.00;99.90;;;;;;5122097;28;19914;-82
2022/02/25 13:53:51;;;;;;;;;;;11.30;99.90;;;;;;5101527;28;19957;-83
2022/02/25 13:56:17;;;;;;;;;;;11.10;99.90;;;;;;5105621;28;19919;-83
2022/02/25 13:58:43;;;;;;;;;;;10.70;99.90;;;;;;5112069;28;20302;-83
2022/02/25 14:01:16;;;;;;;;;;;10.20;99.90;;;;;;5103378;28;19920;-82
2022/02/25 14:03:43;;;;;;;;;;;9.80;99.90;;;;;;5110245;28;19916;-82
2022/02/25 14:06:22;;;;;;;;;;;9.50;99.90;;;;;;5101874;28;19920;-83
2022/02/25 14:08:47;;;;;;;;;;;9.20;99.90;;;;;;5108534;28;19919;-82
2022/02/25 14:11:27;;;;;;;;;;;8.80;99.90;;;;;;5100122;28;19920;-82
2022/02/25 14:13:53;;;;;;;;;;;8.80;99.90;;;;;;5103151;28;19912;-82
2022/02/25 14:16:25;;;;;;;;;;;8.70;99.90;;;;;;5100450;28;20295;-82
2022/02/25 14:18:51;;;;;;;;;;;8.70;99.90;;;;;;5111013;28;19943;-82
2022/02/25 14:21:29;;;;;;;;;;;8.60;99.90;;;;;;5108825;28;19912;-83
2022/02/25 14:23:55;;;;;;;;;;;8.60;99.90;;;;;;5100391;28;20386;-83
2022/02/25 14:26:25;;;;;;;;;;;8.60;99.90;;;;;;5116313;28;19950;-83
2022/02/25 14:28:50;;;;;;;;;;;8.70;99.90;;;;;;5114492;28;19912;-82
2022/02/25 14:31:22;;;;;;;;;;;8.70;99.90;;;;;;5105549;28;19912;-82
2022/02/25 14:33:48;;;;;;;;;;;8.90;99.90;;;;;;5114729;28;19934;-83
2022/02/25 14:36:21;;;;;;;;;;;9.10;99.90;;;;;;5114949;28;19919;-83
2022/02/25 14:38:47;;;;;;;;;;;9.30;99.90;;;;;;5104492;28;19934;-83
2022/02/25 14:41:13;;;;;;;;;;;9.40;99.90;;;;;;5116781;28;19920;-83
2022/02/25 14:43:39;;;;;;;;;;;9.60;99.90;;;;;;5111504;28;19976;-82